ilmateenistus.ee keskkonnaagentuur.ee
EETN Tallinn
FTEO31 EETN 091700
TAF EETN 091710Z 0918/1018 22015KT 9999 FEW025CB BKN030 TEMPO
    0918/0924 4000 SHRA BKN010 SCT015CB TEMPO 1000/1003 4000 SHRA BKN006
    SCT013CB BECMG 1002/1004 34012KT TEMPO 1004/1008 35015G25KT 1000
    +SHSN BKN003 BKN013CB BECMG 1008/1010 SCT020=

METAR EETN 091820Z 23013KT 9000 -SHRA FEW013 SCT019CB BKN033 05/03 Q0990 R08/290195 NOSIG=
Tallinn
EEKA Kärdla
FCEO32 EETN 091300 AAA
TAF AMD EEKA 091700Z 0914/0920 CNL=

METAR EEKA 091750Z NIL=
Kärdla
EEKE Kuressaare
FCEO32 EETN 091500
TAF EEKE 091500Z 0916/0922 22012KT 9999 BKN020 TEMPO 0916/0922
    24015G25KT 5000 SHRA BKN010 SCT015CB BKN020=

METAR EEKE 091750Z AUTO 23013G23KT 200V260 9999NDV -RA FEW017 BKN022 OVC045 07/05 Q0992=
Kuressaare
EEPU Pärnu
METAR EEPU 091750Z NIL=
Pärnu
EETU Tartu
METAR EETU 091820Z AUTO 22015KT 9999 FEW018/// BKN027/// 05/03 Q0994=
Tartu
EEEI Ämari
METAR EEEI 091820Z AUTO 22012KT 9999 -RA FEW024 BKN027 BKN033 05/04 Q0991 R24/290095=
Ämari